Terminal Aerodrome Forecast
Issued by NWS Mt. Holly, NJ

Home | Current Version | Previous Version | Text Only | Print | Product List | Glossary On
Versions: 1 2 3 4 5 6 7 8 9 10 11 12 13 14 15 16 17 18 19 20
000
FTUS41 KPHI 031745
TAFACY
TAF
KACY 031745Z 0318/0418 30009KT P6SM SCT045
     FM031900 09008KT P6SM SCT045
     FM032200 12005KT P6SM SCT045
     FM040000 VRB03KT P6SM SCT045
     FM041100 05006KT P6SM BKN035 BKN150
     FM041400 08011KT P6SM SCT025 OVC035=

USA.gov is the U.S. government's official web portal to all federal, state and local government web resources and services.